Aérodrome :
LOGIN :

S'inscrire | Disclaimer

   EN    FR    IT 

 










Légende :    VFR   VFR Marginal   IFR   IFR Intensif   IFR Très Intensif
Visi : 
Plafond : 
>= 8 km
>= 3000ft
5 à 8 km
1000 à 3000 ft
1500m à 5 km
500 à 1000 ft
800 à 1500m
200 à 500 ft
< 800m
< 200 ft
Symboles :   Orages  Brouillard  Fortes neiges  Fortes précipitations  Vent > 20 kt
SIGMETs :   Divers  Orages  Givrage  Turbulence  Onde Orograph.  Cendres Volcan.






- Altitude de l'aérodrome : -13 ft
- Code IATA : LEY


EHLE - Lelystad

DERNIER METAR :
  • 121925Z AUTO 34008KT 310V010 9999 BKN036 15/09 Q1024 NOSIG

METARs EXPIRÉS :
  • 121855Z AUTO 33009KT 300V360 9999 SCT030 BKN037 16/09 Q1024 NOSIG
  • 121825Z AUTO 34010KT 310V020 9999 BKN031 BKN036 16/09 Q1024 NOSIG
  • 121755Z AUTO 33011KT 290V010 9999 BKN031 BKN039 16/09 Q1024 NOSIG
  • 121725Z AUTO 32010KT 290V350 9999 BKN031 OVC035 17/10 Q1023 NOSIG
  • 121655Z AUTO 29012KT 250V340 9999 BKN030 OVC035 17/09 Q1023 NOSIG

TAF TAF EHLE
Valide du 12 à 18h jusqu'au 14 à 00h UTC


121649Z 1218/1324 31009KT CAVOK



MET'MAP, la Météo Aéronautique d'un coup d'oeil ! - Copyright ORBIFLY Décembre 2007 - Disclaimer

ORBIFLY MET'MAP TEAM :

Programmation & Développement : Alexandra Zaïnal
Sur une idée originale de : Baudouin d'Aumeries
Assistance à la programmation : Marc-Olivier Méhu
Soutien technique & logistique : Manuel Goepfert

Contact : metmap@orbifly.com




SOURCES & CREDITS :

   NOAA